SCJO

Details ICAO SCJO (ZOS)
Name Canal Bajo
Region Chile
Timezone America/Santiago (UTC-3.0)
Plans Departing 7
Arriving 7
Stats Elevation 187 ft / 57 m (AMSL)
Location -40.611210° -73.061039°
Runways 1
Magnetic Variation 7.983° E
Sunrise 2017-12-16 09:17:22 UTC / 2017-12-16 06:17:22 Local
Sunset 2017-12-17 00:21:20 UTC / 2017-12-16 21:21:20 Local
Advertisement - Login to hide

Runways

ID Width Length Bearing (true) Bearing (mag) Surface Threshold Offset Overrun Length
15 118 ft / 36 m 5,583 ft / 1,702 m 146.00° 138.02° Asphalt 0 ft / 0 m 125 ft / 38 m
33 118 ft / 36 m 5,583 ft / 1,702 m 326.00° 318.02° Asphalt 0 ft / 0 m 138 ft / 42 m

Map

Weather


0- 5 10 15 20 25 30 35+ Temperature / ° C

Clouds and Precipitation
Forecast for 2017-12-16 18:00 UTC. Updated an hour ago

Ground ~20,000 ft ~40,000 ft Winds

METAR

SCJO 161800Z 28010G21KT 180V340 9999 BKN025 16/05 Q1010

TAF

TAF SCJO 161023Z 1612/1700 25008KT 8000 -SHRA BKN030 TN11/1612Z TX16/1618Z TEMPO 1612/1614 32010KT 6000 -RA BKN015 BECMG 1617/1619 23007KT 9999 NSW SCT040

Frequencies

Ground 121.70 MHz GND
Tower 119.50 MHz APP
Tower 118.90 MHz TWR
Warning: Do not use this data for real-world aviation or navigation. No guarantee of current accuracy is given.